Time;durP1;ratioP1;P1;durP2;ratioP2;P2;SDS_P1;SDS_P2;PMS_P1;PMS_P2;Temp;Humidity;BMP_temperature;BMP_pressure;BME280_temperature;BME280_humidity;BME280_pressure;Samples;Min_cycle;Max_cycle;Signal;HPM_P1;HPM_P2
2023/06/07 00:01:14;;;;;;;5.10;3.38;;;24.70;41.70;;;;;;6244074;28;20055;-68
2023/06/07 00:04:15;;;;;;;7.35;3.33;;;24.70;41.70;;;;;;6244570;28;20200;-68
2023/06/07 00:07:18;;;;;;;4.65;3.20;;;24.70;41.80;;;;;;6244063;28;20489;-68
2023/06/07 00:10:18;;;;;;;9.73;3.80;;;24.60;41.90;;;;;;6244357;28;20116;-68
2023/06/07 00:13:19;;;;;;;6.70;4.03;;;24.60;42.10;;;;;;6243781;28;20394;-67
2023/06/07 00:16:20;;;;;;;5.03;3.53;;;24.50;42.30;;;;;;6242522;28;20029;-70
2023/06/07 00:19:24;;;;;;;13.75;3.38;;;24.50;43.00;;;;;;6244318;28;20656;-68
2023/06/07 00:22:25;;;;;;;6.40;3.85;;;24.50;43.00;;;;;;6243563;28;20021;-69
2023/06/07 00:25:26;;;;;;;5.90;3.63;;;24.50;43.20;;;;;;6242155;28;20072;-69
2023/06/07 00:28:27;;;;;;;10.40;3.55;;;24.40;43.40;;;;;;6244108;28;20053;-69
2023/06/07 00:31:28;;;;;;;10.68;3.85;;;24.30;43.50;;;;;;6242067;28;20045;-70
2023/06/07 00:34:29;;;;;;;5.72;4.00;;;24.30;43.60;;;;;;6233970;28;20033;-69
2023/06/07 00:37:30;;;;;;;7.40;3.72;;;24.20;43.80;;;;;;6237984;28;20127;-68
2023/06/07 00:40:31;;;;;;;6.07;3.92;;;24.20;43.90;;;;;;6241807;28;20041;-68
2023/06/07 00:43:32;;;;;;;6.30;3.22;;;24.10;44.00;;;;;;6243317;28;20114;-68
2023/06/07 00:46:33;;;;;;;6.47;3.60;;;24.10;44.10;;;;;;6243606;28;20026;-68
2023/06/07 00:49:34;;;;;;;7.57;3.22;;;24.00;44.20;;;;;;6225469;28;20033;-68
2023/06/07 00:52:36;;;;;;;8.80;3.30;;;24.00;44.40;;;;;;6227870;28;20091;-68
2023/06/07 00:55:37;;;;;;;10.23;3.15;;;23.90;44.40;;;;;;6220768;28;20038;-69
2023/06/07 00:58:40;;;;;;;4.63;3.40;;;23.90;44.50;;;;;;6242493;28;20704;-68
2023/06/07 01:01:44;;;;;;;6.85;3.85;;;23.90;44.50;;;;;;6243506;28;20108;-68
2023/06/07 01:04:45;;;;;;;5.35;3.58;;;23.90;44.60;;;;;;6242791;28;20093;-68
2023/06/07 01:07:48;;;;;;;6.25;3.85;;;23.80;44.70;;;;;;6208745;28;20056;-68
2023/06/07 01:10:49;;;;;;;6.25;3.42;;;23.80;45.40;;;;;;6242708;28;20025;-69
2023/06/07 01:13:51;;;;;;;5.80;3.63;;;23.80;44.80;;;;;;6224363;28;20029;-67
2023/06/07 01:16:53;;;;;;;6.43;3.65;;;23.80;44.80;;;;;;6242744;28;20112;-68
2023/06/07 01:19:55;;;;;;;4.75;3.10;;;23.70;44.90;;;;;;6241282;28;20060;-68
2023/06/07 01:23:03;;;;;;;9.60;3.65;;;23.70;45.00;;;;;;6240540;28;20075;-68
2023/06/07 01:26:04;;;;;;;5.38;3.60;;;23.70;45.10;;;;;;6242697;28;20068;-67
2023/06/07 01:29:07;;;;;;;9.88;3.95;;;23.70;45.30;;;;;;6240779;28;20390;-70
2023/06/07 01:32:12;;;;;;;4.47;3.08;;;23.60;45.40;;;;;;6241820;28;20497;-68
2023/06/07 01:35:13;;;;;;;6.22;3.45;;;23.60;45.50;;;;;;6242178;28;20080;-68
2023/06/07 01:38:15;;;;;;;7.57;3.97;;;23.50;45.50;;;;;;6257103;28;20056;-68
2023/06/07 01:41:17;;;;;;;5.03;3.35;;;23.50;45.50;;;;;;6241597;28;20072;-67
2023/06/07 01:44:19;;;;;;;6.78;3.30;;;23.40;45.50;;;;;;6242084;28;20053;-67
2023/06/07 01:47:20;;;;;;;9.45;3.95;;;23.40;45.60;;;;;;6240558;28;20470;-67
2023/06/07 01:50:22;;;;;;;6.45;3.83;;;23.40;45.80;;;;;;6239735;28;20413;-68
2023/06/07 01:53:23;;;;;;;11.35;3.72;;;23.40;45.90;;;;;;6239968;28;20077;-68
2023/06/07 01:57:01;;;;;;;4.57;3.13;;;23.30;46.00;;;;;;6240100;28;20034;-68
2023/06/07 02:00:10;;;;;;;8.30;4.07;;;23.30;46.30;;;;;;6240316;28;20099;-68
2023/06/07 02:03:22;;;;;;;5.85;3.70;;;23.30;46.40;;;;;;6241035;28;20485;-68
2023/06/07 02:06:34;;;;;;;9.68;4.00;;;23.30;46.70;;;;;;6224531;28;20026;-68
2023/06/07 02:09:39;;;;;;;5.97;3.90;;;23.20;47.00;;;;;;6222328;28;20427;-69
2023/06/07 02:12:42;;;;;;;11.10;4.10;;;23.20;47.00;;;;;;6239564;28;20037;-68
2023/06/07 02:15:46;;;;;;;5.78;3.70;;;23.20;47.10;;;;;;6241269;28;20030;-69
2023/06/07 02:18:47;;;;;;;7.55;4.18;;;23.20;47.20;;;;;;6239334;28;20037;-70
2023/06/07 02:21:48;;;;;;;8.35;3.95;;;23.20;47.20;;;;;;6238988;28;20063;-67
2023/06/07 02:24:50;;;;;;;11.02;3.95;;;23.20;47.30;;;;;;6241104;28;20029;-67
2023/06/07 02:27:51;;;;;;;9.68;3.90;;;23.20;47.30;;;;;;6239150;28;20124;-70
2023/06/07 02:30:55;;;;;;;9.48;4.43;;;23.20;47.30;;;;;;6214888;28;20136;-67
2023/06/07 02:33:56;;;;;;;7.07;4.25;;;23.20;47.30;;;;;;6233120;28;20033;-69
2023/06/07 02:36:57;;;;;;;9.70;4.53;;;23.20;47.30;;;;;;6240454;28;20207;-68
2023/06/07 02:39:58;;;;;;;9.13;3.90;;;23.20;47.60;;;;;;6239051;28;20033;-68
2023/06/07 02:42:59;;;;;;;8.57;4.28;;;23.10;47.70;;;;;;6239756;28;20025;-69
2023/06/07 02:46:00;;;;;;;6.63;4.25;;;23.10;47.80;;;;;;6238916;28;20534;-67
2023/06/07 02:49:01;;;;;;;9.52;3.85;;;23.10;47.80;;;;;;6239351;28;20133;-68
2023/06/07 02:52:05;;;;;;;5.95;3.83;;;23.10;47.80;;;;;;6233521;28;20124;-68
2023/06/07 02:55:06;;;;;;;6.80;3.75;;;23.10;47.90;;;;;;6239737;28;20081;-68
2023/06/07 02:58:07;;;;;;;6.60;3.75;;;23.10;48.00;;;;;;6243842;28;20128;-67
2023/06/07 03:01:11;;;;;;;6.18;3.63;;;23.10;48.10;;;;;;6242930;28;20033;-68
2023/06/07 03:04:19;;;;;;;7.30;4.35;;;23.10;48.20;;;;;;6239344;28;20033;-69
2023/06/07 03:07:22;;;;;;;7.70;4.63;;;23.00;48.30;;;;;;6238411;28;20038;-68
2023/06/07 03:10:24;;;;;;;9.20;4.15;;;23.10;48.30;;;;;;6238522;28;20037;-69
2023/06/07 03:13:25;;;;;;;10.43;4.05;;;23.00;48.30;;;;;;6238355;28;20144;-68
2023/06/07 03:16:27;;;;;;;7.55;4.05;;;22.90;48.40;;;;;;6238714;28;20033;-68
2023/06/07 03:19:32;;;;;;;6.68;4.35;;;22.90;48.50;;;;;;6238230;28;20107;-69
2023/06/07 03:22:36;;;;;;;6.20;3.95;;;22.80;48.50;;;;;;6238228;28;20029;-68
2023/06/07 03:25:38;;;;;;;7.72;4.10;;;22.80;48.60;;;;;;6239626;28;20100;-68
2023/06/07 03:28:40;;;;;;;7.43;3.92;;;22.70;48.60;;;;;;6238608;28;20174;-68
2023/06/07 03:31:41;;;;;;;7.35;4.20;;;22.70;48.60;;;;;;6221606;28;20547;-67
2023/06/07 03:34:47;;;;;;;4.72;3.58;;;22.70;48.70;;;;;;6229828;28;20041;-67
2023/06/07 03:37:49;;;;;;;9.82;4.10;;;22.60;48.70;;;;;;6229968;28;20049;-68
2023/06/07 03:40:55;;;;;;;9.48;4.47;;;22.50;48.70;;;;;;6230081;28;20057;-67
2023/06/07 03:43:56;;;;;;;6.22;3.85;;;22.50;48.90;;;;;;6213678;28;20490;-67
2023/06/07 03:46:59;;;;;;;12.10;4.32;;;22.50;49.00;;;;;;6230129;28;20355;-67
2023/06/07 03:50:02;;;;;;;6.15;3.72;;;22.40;49.10;;;;;;6247547;28;20041;-68
2023/06/07 03:53:06;;;;;;;7.38;4.05;;;22.40;49.30;;;;;;6237679;28;20071;-67
2023/06/07 03:56:09;;;;;;;8.82;4.57;;;22.30;49.50;;;;;;6238158;28;20025;-68
2023/06/07 03:59:12;;;;;;;6.43;3.88;;;22.30;49.60;;;;;;6238181;28;20452;-68
2023/06/07 04:02:16;;;;;;;10.27;4.28;;;22.30;49.60;;;;;;6237698;28;20051;-69
2023/06/07 04:05:17;;;;;;;13.13;4.10;;;22.30;49.60;;;;;;6237782;28;20036;-68
2023/06/07 04:08:20;;;;;;;7.13;3.92;;;22.30;49.50;;;;;;6238426;28;20056;-68
2023/06/07 04:11:21;;;;;;;7.90;4.13;;;22.30;49.50;;;;;;6237475;28;20037;-68
2023/06/07 04:14:22;;;;;;;6.57;4.25;;;22.30;49.50;;;;;;6221582;28;20038;-68
2023/06/07 04:17:23;;;;;;;5.95;4.03;;;22.40;49.50;;;;;;6238151;28;20056;-68
2023/06/07 04:20:24;;;;;;;8.57;4.22;;;22.40;49.40;;;;;;6239521;28;20057;-68
2023/06/07 04:23:26;;;;;;;9.02;4.88;;;22.40;49.40;;;;;;6237015;28;20034;-67
2023/06/07 04:26:30;;;;;;;7.47;3.97;;;22.50;49.60;;;;;;6239267;28;20040;-67
2023/06/07 04:29:33;;;;;;;9.32;4.28;;;22.50;49.50;;;;;;6237853;28;20084;-67
2023/06/07 04:32:35;;;;;;;10.32;4.03;;;22.50;49.50;;;;;;6241509;28;20087;-68
2023/06/07 04:35:41;;;;;;;8.93;4.38;;;22.50;49.50;;;;;;6225329;28;20021;-68
2023/06/07 04:38:43;;;;;;;7.85;4.20;;;22.60;49.40;;;;;;6233789;28;20111;-68
2023/06/07 04:41:46;;;;;;;8.25;4.50;;;22.60;49.40;;;;;;6230712;28;20148;-68
2023/06/07 04:44:50;;;;;;;8.35;4.28;;;22.60;49.40;;;;;;6241359;28;20030;-68
2023/06/07 04:47:56;;;;;;;9.45;4.50;;;22.60;49.30;;;;;;6225550;28;20024;-69
2023/06/07 04:51:04;;;;;;;6.35;4.22;;;22.70;49.30;;;;;;6241398;28;20129;-69
2023/06/07 04:54:16;;;;;;;9.35;4.47;;;22.70;49.30;;;;;;6231968;28;20025;-68
2023/06/07 04:57:18;;;;;;;8.00;3.92;;;22.80;49.30;;;;;;6233780;28;20180;-68
2023/06/07 05:00:21;;;;;;;6.93;3.90;;;22.80;49.30;;;;;;6241503;28;20080;-69
2023/06/07 05:03:24;;;;;;;14.40;4.00;;;22.70;49.20;;;;;;6224820;28;20207;-69
2023/06/07 05:06:30;;;;;;;9.70;4.45;;;22.70;49.10;;;;;;6233565;28;20041;-69
2023/06/07 05:09:32;;;;;;;7.13;4.13;;;22.70;49.10;;;;;;6240397;28;20188;-69
2023/06/07 05:12:36;;;;;;;13.35;4.40;;;22.60;49.20;;;;;;6212692;28;20550;-68
2023/06/07 05:15:37;;;;;;;7.20;3.90;;;22.60;49.20;;;;;;6228691;28;20037;-69
2023/06/07 05:18:39;;;;;;;7.72;4.25;;;22.60;49.30;;;;;;6240762;28;20502;-69
2023/06/07 05:21:40;;;;;;;11.20;4.07;;;22.60;49.30;;;;;;6226352;28;20034;-69
2023/06/07 05:24:41;;;;;;;8.50;4.70;;;22.60;49.40;;;;;;6229054;28;20055;-68
2023/06/07 05:27:43;;;;;;;9.30;5.07;;;22.50;49.40;;;;;;6233478;28;20021;-68
2023/06/07 05:30:44;;;;;;;9.18;4.63;;;22.50;49.50;;;;;;6223255;28;20022;-69
2023/06/07 05:33:46;;;;;;;12.02;5.20;;;22.50;49.50;;;;;;6223152;28;20034;-69
2023/06/07 05:36:48;;;;;;;8.10;4.53;;;22.40;49.60;;;;;;6237615;28;20136;-68
2023/06/07 05:39:49;;;;;;;11.95;4.90;;;22.50;49.70;;;;;;6241779;28;20056;-69
2023/06/07 05:42:50;;;;;;;7.75;4.80;;;22.50;49.80;;;;;;6239263;28;20128;-69
2023/06/07 05:45:53;;;;;;;12.90;4.97;;;22.50;49.70;;;;;;6240297;28;20029;-67
2023/06/07 05:48:54;;;;;;;11.10;5.28;;;22.60;49.70;;;;;;6223876;28;20481;-70
2023/06/07 05:51:59;;;;;;;8.13;4.78;;;22.60;49.70;;;;;;6239482;28;20032;-68
2023/06/07 05:55:01;;;;;;;8.32;4.30;;;22.70;49.70;;;;;;6241537;28;20116;-69
2023/06/07 05:58:01;;;;;;;7.65;4.50;;;22.70;49.60;;;;;;6241665;28;20030;-68
2023/06/07 06:01:05;;;;;;;10.60;4.10;;;22.80;49.60;;;;;;6239997;28;20400;-69
2023/06/07 06:04:06;;;;;;;13.55;5.03;;;22.80;49.50;;;;;;6241433;28;20044;-69
2023/06/07 06:07:06;;;;;;;8.00;4.22;;;22.90;49.60;;;;;;6239476;28;20021;-69
2023/06/07 06:10:08;;;;;;;10.05;4.50;;;22.90;49.50;;;;;;6239224;28;20099;-69
2023/06/07 06:13:09;;;;;;;8.88;4.70;;;22.90;49.40;;;;;;6241242;28;20461;-69
2023/06/07 06:16:10;;;;;;;7.03;4.68;;;23.00;49.40;;;;;;6240324;28;20033;-69
2023/06/07 06:19:11;;;;;;;9.25;5.35;;;23.10;49.20;;;;;;6241047;28;20082;-69
2023/06/07 06:22:11;;;;;;;9.32;4.63;;;23.30;49.20;;;;;;6239357;28;20094;-68
2023/06/07 06:25:13;;;;;;;7.07;4.38;;;23.40;49.00;;;;;;6242060;28;20104;-68
2023/06/07 06:28:14;;;;;;;8.90;4.43;;;23.40;48.80;;;;;;6242852;28;20033;-69
2023/06/07 06:31:15;;;;;;;11.70;5.25;;;23.50;48.70;;;;;;6239733;28;20061;-68
2023/06/07 06:34:18;;;;;;;11.65;4.88;;;23.60;48.70;;;;;;6240613;28;20124;-69
2023/06/07 06:37:20;;;;;;;9.45;5.35;;;23.70;48.60;;;;;;6240218;28;20163;-68
2023/06/07 06:40:21;;;;;;;8.20;4.50;;;23.80;48.40;;;;;;6240121;28;20033;-69
2023/06/07 06:43:22;;;;;;;9.88;5.10;;;24.00;48.20;;;;;;6240012;28;20087;-69
2023/06/07 06:46:27;;;;;;;13.25;5.05;;;24.10;48.00;;;;;;6238912;28;20033;-69
2023/06/07 06:49:28;;;;;;;8.95;5.13;;;24.30;47.80;;;;;;6238944;28;20060;-68
2023/06/07 06:52:29;;;;;;;13.57;4.63;;;24.40;47.40;;;;;;6239427;28;20076;-68
2023/06/07 06:55:30;;;;;;;14.70;4.80;;;24.60;47.10;;;;;;6238158;28;20029;-69
2023/06/07 06:58:34;;;;;;;12.20;4.63;;;24.70;46.80;;;;;;6240119;28;20029;-69
2023/06/07 07:02:01;;;;;;;15.05;4.72;;;24.80;46.70;;;;;;6239512;28;20036;-69
2023/06/07 07:05:05;;;;;;;13.75;4.57;;;24.90;46.40;;;;;;6237499;28;20048;-68
2023/06/07 07:08:06;;;;;;;11.18;4.93;;;24.90;46.00;;;;;;6238382;28;20034;-69
2023/06/07 07:11:07;;;;;;;8.70;4.75;;;25.00;45.90;;;;;;6239418;28;20025;-70
2023/06/07 07:14:08;;;;;;;7.57;4.22;;;25.00;45.90;;;;;;6240155;28;20485;-69
2023/06/07 07:17:09;;;;;;;8.63;4.32;;;25.10;45.90;;;;;;6240077;28;20025;-68
2023/06/07 07:20:10;;;;;;;8.52;4.20;;;25.20;45.50;;;;;;6239943;28;20081;-68
2023/06/07 07:23:12;;;;;;;13.98;4.22;;;25.40;45.00;;;;;;6239515;28;20041;-69
2023/06/07 07:26:13;;;;;;;6.13;4.07;;;25.50;44.70;;;;;;6239746;28;20482;-68
2023/06/07 07:29:14;;;;;;;14.10;4.40;;;25.60;44.50;;;;;;6240102;28;20091;-69
2023/06/07 07:32:15;;;;;;;8.82;4.07;;;25.60;44.00;;;;;;6238244;28;20026;-69
2023/06/07 07:35:16;;;;;;;7.13;4.40;;;25.60;43.80;;;;;;6240075;28;20657;-69
2023/06/07 07:38:17;;;;;;;11.93;4.70;;;25.70;43.70;;;;;;6238417;28;20125;-69
2023/06/07 07:41:18;;;;;;;6.10;4.05;;;25.80;43.60;;;;;;6239227;28;20053;-69
2023/06/07 07:44:19;;;;;;;8.05;4.03;;;25.80;43.20;;;;;;6238657;28;20290;-69
2023/06/07 07:47:20;;;;;;;14.07;5.22;;;25.90;43.20;;;;;;6239467;28;20413;-69
2023/06/07 07:50:21;;;;;;;10.95;5.38;;;25.90;43.20;;;;;;6239522;28;20113;-69
2023/06/07 07:53:22;;;;;;;8.77;5.22;;;26.00;43.50;;;;;;6238773;28;20037;-69
2023/06/07 07:56:23;;;;;;;14.73;5.13;;;26.10;43.60;;;;;;6237670;28;20381;-69
2023/06/07 07:59:24;;;;;;;8.18;4.60;;;26.10;43.60;;;;;;6237471;28;20551;-69
2023/06/07 08:02:25;;;;;;;10.38;5.50;;;26.20;43.50;;;;;;6239398;28;20021;-70
2023/06/07 08:05:26;;;;;;;11.43;4.63;;;26.30;43.30;;;;;;6237918;28;20049;-68
2023/06/07 08:08:27;;;;;;;13.68;5.35;;;26.40;43.00;;;;;;6243140;28;20060;-69
2023/06/07 08:11:28;;;;;;;7.72;4.53;;;26.60;42.70;;;;;;6243213;28;20029;-69
2023/06/07 08:14:29;;;;;;;7.45;4.45;;;26.70;42.50;;;;;;6243573;28;20044;-70
2023/06/07 08:17:30;;;;;;;12.50;4.57;;;26.80;42.20;;;;;;6242363;28;20052;-69
2023/06/07 08:20:31;;;;;;;14.20;4.45;;;26.90;42.00;;;;;;6242931;28;20036;-69
2023/06/07 08:23:32;;;;;;;12.43;4.65;;;27.00;41.70;;;;;;6244019;28;20784;-69
2023/06/07 08:26:33;;;;;;;6.65;4.15;;;27.00;41.60;;;;;;6242873;28;20033;-70
2023/06/07 08:29:34;;;;;;;9.25;4.50;;;27.10;41.40;;;;;;6242415;28;20033;-69
2023/06/07 08:32:35;;;;;;;9.57;4.43;;;27.10;41.10;;;;;;6242915;28;20034;-70
2023/06/07 08:35:36;;;;;;;17.27;6.47;;;27.10;40.80;;;;;;6242213;28;20079;-69
2023/06/07 08:38:41;;;;;;;8.25;5.20;;;27.20;40.60;;;;;;6243575;28;20604;-69
2023/06/07 08:41:45;;;;;;;10.57;5.07;;;27.40;40.40;;;;;;6243875;28;20033;-69
2023/06/07 08:44:46;;;;;;;10.05;4.38;;;27.50;40.20;;;;;;6245094;28;20112;-71
2023/06/07 08:47:50;;;;;;;9.95;4.50;;;27.70;40.10;;;;;;6243509;28;20034;-68
2023/06/07 08:50:53;;;;;;;8.57;4.70;;;27.80;39.70;;;;;;6243086;28;20117;-70
2023/06/07 08:53:56;;;;;;;6.85;4.20;;;28.00;39.30;;;;;;6242723;28;20029;-69
2023/06/07 08:56:57;;;;;;;16.80;5.30;;;28.20;39.00;;;;;;6241606;28;20045;-68
2023/06/07 09:00:00;;;;;;;12.35;4.97;;;28.30;38.90;;;;;;6243642;28;20044;-70
2023/06/07 09:03:01;;;;;;;10.05;4.43;;;28.40;38.90;;;;;;6241142;28;20112;-69
2023/06/07 09:06:02;;;;;;;10.18;4.90;;;28.30;39.20;;;;;;6242904;28;20073;-69
2023/06/07 09:09:04;;;;;;;10.95;4.90;;;28.20;39.80;;;;;;6242285;28;20535;-69
2023/06/07 09:12:05;;;;;;;6.00;3.95;;;28.10;40.30;;;;;;6258394;28;20047;-69
2023/06/07 09:15:07;;;;;;;9.43;4.68;;;28.20;40.40;;;;;;6241358;28;20040;-69
2023/06/07 09:18:08;;;;;;;8.27;4.60;;;28.30;40.30;;;;;;6242634;28;20037;-69
2023/06/07 09:21:22;;;;;;;5.40;4.47;;;28.40;40.30;;;;;;6242614;28;20064;-69
2023/06/07 09:24:30;;;;;;;8.55;5.10;;;28.40;40.60;;;;;;6241952;28;20160;-69
2023/06/07 09:27:31;;;;;;;5.32;4.00;;;28.50;40.80;;;;;;6257760;28;20053;-71
2023/06/07 09:30:32;;;;;;;10.77;4.80;;;28.50;40.90;;;;;;6241110;28;20117;-69
2023/06/07 09:33:34;;;;;;;6.68;4.28;;;28.60;40.90;;;;;;6242145;28;20037;-69
2023/06/07 09:36:47;;;;;;;7.18;4.32;;;28.60;40.70;;;;;;6242806;28;20402;-70
2023/06/07 09:39:52;;;;;;;11.38;4.20;;;28.70;40.50;;;;;;6240158;28;20045;-69
2023/06/07 09:42:59;;;;;;;6.93;4.60;;;28.80;40.30;;;;;;6241817;28;20055;-70
2023/06/07 09:46:00;;;;;;;8.55;4.25;;;28.80;40.10;;;;;;6242088;28;20138;-69
2023/06/07 09:49:02;;;;;;;8.65;4.50;;;28.80;40.10;;;;;;6242349;28;20021;-69
2023/06/07 09:52:03;;;;;;;6.50;4.45;;;28.90;40.10;;;;;;6248912;28;20196;-70
2023/06/07 09:55:06;;;;;;;6.50;4.07;;;29.00;40.10;;;;;;6216046;28;20060;-68
2023/06/07 09:58:22;;;;;;;6.32;4.30;;;29.00;40.00;;;;;;6237907;28;20049;-70
2023/06/07 10:01:37;;;;;;;7.47;4.30;;;29.00;39.70;;;;;;6239635;28;20037;-69
2023/06/07 10:04:39;;;;;;;7.75;4.30;;;29.00;39.30;;;;;;6241994;28;20465;-69
2023/06/07 10:07:45;;;;;;;7.72;4.07;;;29.10;38.90;;;;;;6241931;28;20412;-69
2023/06/07 10:10:52;;;;;;;6.50;4.50;;;29.20;39.00;;;;;;6241184;28;20058;-70
2023/06/07 10:13:55;;;;;;;4.93;3.87;;;29.30;39.00;;;;;;6242331;28;20033;-69
2023/06/07 10:17:09;;;;;;;10.32;4.55;;;29.40;38.70;;;;;;6240989;28;20287;-70
2023/06/07 10:20:16;;;;;;;7.72;4.30;;;29.40;38.40;;;;;;6233163;28;20179;-70
2023/06/07 10:23:31;;;;;;;11.77;4.25;;;29.50;38.50;;;;;;6237093;28;20104;-69
2023/06/07 10:26:45;;;;;;;6.78;4.03;;;29.40;38.80;;;;;;6230520;28;20096;-70
2023/06/07 10:30:03;;;;;;;6.43;4.32;;;29.50;39.00;;;;;;6228873;28;20036;-69
2023/06/07 10:33:04;;;;;;;4.78;3.70;;;29.50;39.20;;;;;;6238763;28;20030;-69
2023/06/07 10:36:08;;;;;;;7.95;4.82;;;29.60;39.30;;;;;;6230664;28;20413;-69
2023/06/07 10:39:11;;;;;;;8.00;4.20;;;29.70;39.20;;;;;;6231293;28;20473;-71
2023/06/07 10:42:13;;;;;;;9.70;4.88;;;29.80;38.90;;;;;;6240438;28;20037;-70
2023/06/07 10:45:18;;;;;;;8.93;4.82;;;29.90;38.70;;;;;;6219854;28;20039;-70
2023/06/07 10:48:34;;;;;;;8.13;4.03;;;30.00;38.60;;;;;;6215998;28;20030;-69
2023/06/07 10:51:43;;;;;;;8.52;4.80;;;30.10;38.20;;;;;;6218797;28;20045;-69
2023/06/07 10:54:45;;;;;;;8.00;4.90;;;30.30;38.10;;;;;;6240114;28;20138;-69
2023/06/07 10:57:48;;;;;;;7.00;4.43;;;30.40;37.90;;;;;;6239606;28;20026;-69
2023/06/07 11:00:49;;;;;;;6.85;4.43;;;30.50;37.60;;;;;;6240280;28;20037;-69
2023/06/07 11:03:50;;;;;;;10.85;4.22;;;30.70;37.00;;;;;;6239800;28;20037;-69
2023/06/07 11:07:22;;;;;;;13.80;4.28;;;31.50;36.10;;;;;;6240221;28;20542;-70
2023/06/07 11:10:23;;;;;;;6.28;4.50;;;32.60;34.40;;;;;;6239982;28;20029;-72
2023/06/07 11:13:42;;;;;;;7.50;3.75;;;33.50;33.00;;;;;;6221690;28;20029;-70
2023/06/07 11:16:43;;;;;;;5.68;4.00;;;34.20;32.20;;;;;;6238012;28;20477;-70
2023/06/07 11:19:54;;;;;;;11.88;4.82;;;34.90;31.50;;;;;;6238049;28;20079;-69
2023/06/07 11:23:27;;;;;;;11.73;4.70;;;35.40;30.50;;;;;;6239198;28;20767;-70
2023/06/07 11:26:34;;;;;;;8.75;4.10;;;35.90;29.90;;;;;;6239766;28;20052;-70
2023/06/07 11:29:36;;;;;;;10.00;4.38;;;36.40;29.40;;;;;;6239810;28;20825;-69
2023/06/07 11:32:37;;;;;;;8.68;4.40;;;36.70;28.90;;;;;;6239083;28;20167;-70
2023/06/07 11:35:38;;;;;;;5.20;3.90;;;36.70;28.60;;;;;;6239619;28;20506;-68
2023/06/07 11:38:41;;;;;;;9.63;4.40;;;36.80;28.30;;;;;;6239468;28;20080;-70
2023/06/07 11:41:42;;;;;;;5.78;4.03;;;36.90;28.00;;;;;;6240675;28;20064;-69
2023/06/07 11:44:43;;;;;;;4.68;3.67;;;36.90;27.70;;;;;;6244075;28;20090;-69
2023/06/07 11:47:51;;;;;;;10.75;3.60;;;37.00;27.60;;;;;;6234581;28;20022;-71
2023/06/07 11:50:52;;;;;;;;;;;37.10;27.30;;;;;;6234335;28;20105;-69
2023/06/07 11:53:58;;;;;;;6.75;3.95;;;37.00;27.10;;;;;;6242961;28;19913;-68
2023/06/07 11:56:59;;;;;;;5.32;3.38;;;37.00;27.00;;;;;;6241600;28;20037;-69
2023/06/07 12:00:01;;;;;;;8.40;3.97;;;37.00;26.90;;;;;;6243864;28;20053;-69
2023/06/07 12:03:13;;;;;;;8.00;3.83;;;37.10;26.80;;;;;;6243218;28;20113;-70
2023/06/07 12:06:13;;;;;;;5.68;3.83;;;37.10;26.80;;;;;;6233842;28;20404;-69
2023/06/07 12:09:14;;;;;;;7.13;4.07;;;37.30;26.60;;;;;;6243149;28;20029;-69
2023/06/07 12:12:15;;;;;;;7.53;4.05;;;37.60;26.40;;;;;;6240607;28;20807;-69
2023/06/07 12:15:16;;;;;;;6.72;3.85;;;37.80;26.40;;;;;;6243549;28;20124;-69
2023/06/07 12:18:35;;;;;;;6.68;3.80;;;38.10;26.30;;;;;;6243625;28;20034;-70
2023/06/07 12:21:36;;;;;;;10.00;4.15;;;38.30;26.20;;;;;;6233457;28;20509;-70
2023/06/07 12:24:38;;;;;;;7.13;4.03;;;38.50;25.90;;;;;;6243489;28;20040;-69
2023/06/07 12:27:39;;;;;;;4.90;3.80;;;38.70;25.70;;;;;;6243835;28;20017;-70
2023/06/07 12:30:42;;;;;;;9.05;4.13;;;39.10;25.00;;;;;;6229492;28;20075;-69
2023/06/07 12:33:56;;;;;;;5.88;3.75;;;39.20;24.50;;;;;;6233394;28;20043;-68
2023/06/07 12:36:57;;;;;;;7.43;4.15;;;39.20;24.40;;;;;;6232197;28;20033;-70
2023/06/07 12:39:58;;;;;;;5.88;4.03;;;39.20;24.30;;;;;;6242741;28;20033;-70
2023/06/07 12:42:59;;;;;;;5.60;4.15;;;39.40;23.90;;;;;;6242621;28;20036;-70
2023/06/07 12:46:00;;;;;;;10.75;3.53;;;39.60;23.70;;;;;;6241584;28;20486;-69
2023/06/07 12:49:01;;;;;;;5.35;3.58;;;39.90;23.30;;;;;;6243148;28;20052;-69
2023/06/07 12:52:02;;;;;;;5.10;3.00;;;40.20;22.90;;;;;;6242040;28;20029;-67
2023/06/07 12:55:03;;;;;;;4.78;3.00;;;40.00;22.70;;;;;;6242679;28;20064;-68
2023/06/07 12:58:04;;;;;;;4.05;3.35;;;40.00;22.70;;;;;;6219249;28;20044;-69
2023/06/07 13:01:05;;;;;;;9.93;3.83;;;40.10;22.50;;;;;;6217839;28;20025;-69
2023/06/07 13:04:06;;;;;;;6.90;3.60;;;40.30;22.10;;;;;;6216683;28;20091;-69
2023/06/07 13:07:07;;;;;;;6.78;3.45;;;40.70;21.50;;;;;;6218994;28;20474;-70
2023/06/07 13:10:10;;;;;;;8.52;3.92;;;40.90;21.00;;;;;;6218294;28;20502;-70
2023/06/07 13:13:11;;;;;;;5.32;3.05;;;41.00;20.70;;;;;;6217213;28;20344;-70
2023/06/07 13:16:12;;;;;;;4.90;3.20;;;41.30;20.80;;;;;;6217938;28;20212;-68
2023/06/07 13:19:13;;;;;;;5.35;3.20;;;41.90;20.50;;;;;;6216163;28;20034;-69
2023/06/07 13:22:14;;;;;;;5.43;3.75;;;41.60;20.30;;;;;;6239558;28;20414;-68
2023/06/07 13:25:15;;;;;;;5.20;3.70;;;41.30;20.40;;;;;;6240542;28;20033;-68
2023/06/07 13:28:16;;;;;;;5.05;3.17;;;41.60;20.40;;;;;;6242230;28;20108;-69
2023/06/07 13:31:17;;;;;;;5.55;3.25;;;42.20;20.00;;;;;;6241543;28;20426;-69
2023/06/07 13:34:18;;;;;;;5.32;3.40;;;43.00;19.70;;;;;;6242078;28;20554;-69
2023/06/07 13:37:18;;;;;;;7.13;3.83;;;43.60;19.30;;;;;;6242173;28;20453;-68
2023/06/07 13:40:19;;;;;;;5.40;3.15;;;44.10;19.00;;;;;;6242249;28;20030;-69
2023/06/07 13:43:20;;;;;;;4.90;3.08;;;44.30;18.80;;;;;;6241112;28;20048;-68
2023/06/07 13:46:21;;;;;;;4.95;3.25;;;44.70;18.40;;;;;;6242226;28;20030;-69
2023/06/07 13:49:22;;;;;;;5.40;3.03;;;44.80;18.10;;;;;;6240380;28;20145;-70
2023/06/07 13:52:23;;;;;;;5.97;3.78;;;44.90;18.10;;;;;;6240591;28;20030;-69
2023/06/07 13:55:24;;;;;;;6.00;3.67;;;45.30;18.00;;;;;;6241416;28;20053;-69
2023/06/07 13:58:31;;;;;;;5.18;3.55;;;45.80;17.90;;;;;;6241344;28;20036;-69
2023/06/07 14:01:32;;;;;;;3.95;3.15;;;45.90;17.60;;;;;;6240611;28;20680;-68
2023/06/07 14:04:33;;;;;;;5.35;3.25;;;46.10;17.40;;;;;;6232212;28;20067;-69
2023/06/07 14:07:34;;;;;;;3.70;3.08;;;46.40;17.40;;;;;;6218413;28;20109;-68
2023/06/07 14:10:35;;;;;;;5.80;3.38;;;46.70;17.20;;;;;;6226645;28;20088;-68
2023/06/07 14:13:36;;;;;;;6.82;3.30;;;46.60;17.10;;;;;;6215474;28;20037;-69
2023/06/07 14:16:37;;;;;;;4.53;3.33;;;46.40;17.40;;;;;;6233991;28;20389;-69
2023/06/07 14:19:40;;;;;;;6.63;3.45;;;46.30;17.30;;;;;;6239553;28;20116;-68
2023/06/07 14:22:41;;;;;;;4.35;3.17;;;46.10;17.50;;;;;;6238542;28;20115;-69
2023/06/07 14:25:42;;;;;;;5.82;3.00;;;45.70;17.60;;;;;;6242063;28;20021;-69
2023/06/07 14:28:47;;;;;;;5.50;3.30;;;45.30;17.70;;;;;;6262424;28;20496;-74
2023/06/07 14:31:47;;;;;;;3.88;3.15;;;45.20;17.60;;;;;;6265150;28;20102;-69
2023/06/07 14:34:48;;;;;;;9.75;3.65;;;44.40;18.20;;;;;;6240773;28;20060;-69
2023/06/07 14:37:49;;;;;;;4.28;3.03;;;42.90;19.20;;;;;;6238763;28;20021;-69
2023/06/07 14:40:50;;;;;;;7.72;3.33;;;41.40;20.10;;;;;;6238961;28;20033;-69
2023/06/07 14:43:51;;;;;;;6.25;3.72;;;40.30;21.00;;;;;;6240056;28;20026;-68
2023/06/07 14:46:52;;;;;;;4.55;3.50;;;39.50;21.70;;;;;;6240241;28;20060;-69
2023/06/07 14:49:52;;;;;;;5.18;3.78;;;39.50;21.90;;;;;;6240593;28;20030;-69
2023/06/07 14:52:53;;;;;;;6.35;4.90;;;39.80;21.60;;;;;;6224061;28;20033;-69
2023/06/07 14:55:55;;;;;;;6.43;3.65;;;39.40;21.90;;;;;;6232092;28;20025;-69
2023/06/07 14:58:56;;;;;;;6.88;3.47;;;39.50;21.80;;;;;;6255054;28;20036;-68
2023/06/07 15:01:57;;;;;;;3.92;3.08;;;40.20;21.50;;;;;;6237913;28;20033;-69
2023/06/07 15:04:58;;;;;;;6.40;3.92;;;41.10;21.00;;;;;;6233042;28;20609;-68
2023/06/07 15:07:59;;;;;;;5.53;3.15;;;41.90;20.50;;;;;;6240158;28;20021;-70
2023/06/07 15:11:00;;;;;;;6.65;4.07;;;42.30;20.30;;;;;;6231838;28;20026;-69
2023/06/07 15:14:01;;;;;;;5.28;3.45;;;42.60;20.10;;;;;;6239610;28;20160;-70
2023/06/07 15:17:03;;;;;;;5.70;3.58;;;42.90;20.00;;;;;;6240372;28;20033;-69
2023/06/07 15:20:04;;;;;;;3.92;3.30;;;43.20;19.60;;;;;;6239677;28;20059;-69
2023/06/07 15:23:05;;;;;;;9.52;3.97;;;43.50;19.40;;;;;;6239306;28;20120;-71
2023/06/07 15:26:06;;;;;;;5.35;3.22;;;42.60;19.80;;;;;;6239064;28;20471;-68
2023/06/07 15:29:08;;;;;;;7.65;4.20;;;41.20;20.80;;;;;;6239183;28;20049;-70
2023/06/07 15:32:09;;;;;;;6.90;3.70;;;39.80;21.60;;;;;;6239485;28;20115;-69
2023/06/07 15:35:10;;;;;;;9.25;3.90;;;38.70;22.70;;;;;;6239070;28;20033;-68
2023/06/07 15:38:11;;;;;;;7.18;4.00;;;37.70;23.80;;;;;;6239118;28;20029;-69
2023/06/07 15:41:14;;;;;;;8.55;3.60;;;36.80;24.40;;;;;;6239024;28;20029;-68
2023/06/07 15:44:15;;;;;;;5.07;3.40;;;36.50;25.20;;;;;;6237954;28;20033;-70
2023/06/07 15:47:16;;;;;;;3.53;3.22;;;37.30;25.00;;;;;;6221483;28;20030;-69
2023/06/07 15:50:17;;;;;;;6.40;3.85;;;38.40;24.40;;;;;;6238379;28;20025;-69